createdAt,value
2023-03-22T00:02:17.338Z,46.80
2023-03-22T00:04:45.677Z,49.70
2023-03-22T00:07:13.887Z,49.40
2023-03-22T00:09:42.166Z,47.90
2023-03-22T00:12:10.465Z,49.80
2023-03-22T00:14:38.755Z,49.50
2023-03-22T00:17:06.994Z,48.30
2023-03-22T00:19:35.256Z,46.90
2023-03-22T00:22:06.234Z,45.90
2023-03-22T00:24:34.628Z,44.60
2023-03-22T00:27:03.495Z,46.10
2023-03-22T00:29:31.781Z,47.30
2023-03-22T00:32:00.173Z,46.00
2023-03-22T00:34:32.157Z,46.40
2023-03-22T00:37:01.533Z,45.70
2023-03-22T00:39:30.103Z,45.40
2023-03-22T00:41:58.365Z,47.40
2023-03-22T00:44:27.099Z,48.40
2023-03-22T00:46:55.456Z,44.70
2023-03-22T00:49:25.606Z,48.10
2023-03-22T00:51:54.824Z,47.00
2023-03-22T00:54:23.091Z,45.10
2023-03-22T00:56:51.339Z,42.30
2023-03-22T00:59:19.735Z,42.30
2023-03-22T01:01:48.038Z,43.90
2023-03-22T01:04:25.790Z,42.70
2023-03-22T01:07:00.707Z,43.10
2023-03-22T01:09:33.787Z,41.20
2023-03-22T01:12:03.700Z,45.00
2023-03-22T01:14:31.899Z,44.00
2023-03-22T01:17:00.328Z,43.80
2023-03-22T01:19:29.016Z,47.80
2023-03-22T01:21:57.840Z,44.80
2023-03-22T01:24:26.535Z,46.10
2023-03-22T01:26:54.944Z,46.20
2023-03-22T01:29:24.012Z,46.60
2023-03-22T01:31:52.622Z,46.80
2023-03-22T01:34:22.307Z,44.60
2023-03-22T01:36:51.013Z,43.50
2023-03-22T01:39:19.536Z,45.20
2023-03-22T01:41:48.751Z,44.80
2023-03-22T01:44:20.431Z,44.90
2023-03-22T01:46:50.998Z,43.90
2023-03-22T01:49:32.012Z,47.90
2023-03-22T01:52:09.236Z,44.20
2023-03-22T01:54:57.829Z,42.60
2023-03-22T01:57:46.368Z,44.50
2023-03-22T02:00:22.526Z,42.10
2023-03-22T02:03:07.385Z,41.80
2023-03-22T02:05:39.681Z,40.40
2023-03-22T02:08:09.425Z,41.00
2023-03-22T02:11:04.787Z,43.70
2023-03-22T02:17:19.395Z,43.60
2023-03-22T02:20:04.778Z,43.70
2023-03-22T02:22:58.344Z,44.00
2023-03-22T02:25:48.386Z,41.80
2023-03-22T02:28:59.590Z,43.40
2023-03-22T02:31:52.843Z,44.50
2023-03-22T02:34:36.189Z,42.70
2023-03-22T02:37:22.568Z,43.60
2023-03-22T02:40:03.934Z,43.00
2023-03-22T02:43:04.735Z,42.10
2023-03-22T02:45:55.328Z,42.20
2023-03-22T02:48:32.531Z,40.30
2023-03-22T02:51:23.839Z,42.10
2023-03-22T02:54:08.705Z,43.50
2023-03-22T02:56:41.211Z,44.90
2023-03-22T02:59:13.075Z,42.90
2023-03-22T03:01:46.199Z,40.60
2023-03-22T03:04:19.725Z,39.10
2023-03-22T03:06:51.833Z,37.50
2023-03-22T03:09:21.293Z,38.80
2023-03-22T03:11:52.091Z,38.20
2023-03-22T03:14:29.391Z,36.00
2023-03-22T03:17:21.435Z,35.90
2023-03-22T03:20:31.092Z,35.20
2023-03-22T03:23:05.059Z,34.70
2023-03-22T03:25:44.352Z,37.80
2023-03-22T03:28:23.093Z,37.20
2023-03-22T03:31:34.823Z,35.70
2023-03-22T03:34:05.910Z,32.90
2023-03-22T03:36:37.986Z,34.50
2023-03-22T03:39:11.045Z,33.30
2023-03-22T03:41:42.353Z,31.50
2023-03-22T03:44:11.616Z,33.00
2023-03-22T03:46:40.927Z,33.80
2023-03-22T03:49:12.692Z,31.90
2023-03-22T03:51:52.550Z,32.40
2023-03-22T03:54:21.382Z,31.20
2023-03-22T03:56:49.935Z,32.90
2023-03-22T03:59:19.105Z,34.00
2023-03-22T04:01:52.759Z,35.30
2023-03-22T04:04:29.952Z,35.20
2023-03-22T04:07:04.007Z,35.90
2023-03-22T04:09:35.301Z,36.90
2023-03-22T04:12:23.813Z,38.60
2023-03-22T04:15:12.208Z,34.80
2023-03-22T04:17:41.595Z,37.70
2023-03-22T04:20:12.484Z,35.50
2023-03-22T04:22:42.300Z,34.20
2023-03-22T04:25:13.485Z,38.70
2023-03-22T04:27:51.333Z,40.60
2023-03-22T04:30:20.668Z,38.60
2023-03-22T04:33:07.663Z,41.10
2023-03-22T04:35:59.491Z,44.00
2023-03-22T04:38:33.168Z,45.70
2023-03-22T04:41:01.715Z,46.80
2023-03-22T04:43:39.452Z,46.40
2023-03-22T04:46:13.001Z,46.10
2023-03-22T04:48:47.865Z,45.90
2023-03-22T04:51:17.101Z,44.30
2023-03-22T04:53:54.996Z,45.90
2023-03-22T04:56:23.932Z,44.00
2023-03-22T04:58:52.725Z,45.70
2023-03-22T05:01:21.136Z,43.70
2023-03-22T05:03:53.656Z,42.30
2023-03-22T05:06:23.304Z,44.50
2023-03-22T05:08:58.801Z,45.80
2023-03-22T05:11:28.185Z,44.70
2023-03-22T05:14:08.417Z,44.30
2023-03-22T05:16:37.182Z,44.00
2023-03-22T05:19:06.781Z,44.50
2023-03-22T05:21:36.980Z,44.10
2023-03-22T05:24:07.103Z,43.00
2023-03-22T05:26:38.086Z,43.20
2023-03-22T05:29:06.494Z,43.70
2023-03-22T05:31:46.589Z,44.10
2023-03-22T05:34:15.275Z,44.10
2023-03-22T05:36:43.730Z,40.00
2023-03-22T05:39:23.164Z,42.60
2023-03-22T05:41:51.840Z,44.40
2023-03-22T05:44:20.297Z,45.20
2023-03-22T05:47:14.671Z,44.60
2023-03-22T05:49:53.998Z,46.10
2023-03-22T05:52:24.010Z,44.60
2023-03-22T05:55:07.447Z,43.30
2023-03-22T05:57:36.178Z,43.20
2023-03-22T06:00:15.147Z,44.40
2023-03-22T06:02:56.381Z,44.50
2023-03-22T06:05:25.455Z,44.30
2023-03-22T06:07:53.954Z,45.60
2023-03-22T06:10:24.298Z,44.50
2023-03-22T06:12:53.893Z,43.10
2023-03-22T06:15:26.393Z,43.20
2023-03-22T06:18:03.274Z,42.50
2023-03-22T06:20:35.477Z,42.50
2023-03-22T06:23:08.998Z,46.50
2023-03-22T06:25:37.694Z,41.00
2023-03-22T06:28:08.589Z,44.70
2023-03-22T06:30:38.499Z,40.70
2023-03-22T06:33:36.944Z,42.40
2023-03-22T06:36:12.070Z,41.60
2023-03-22T06:38:51.022Z,39.80
2023-03-22T06:41:19.364Z,40.30
2023-03-22T06:43:47.570Z,40.70
2023-03-22T06:46:31.634Z,37.90
2023-03-22T06:49:07.983Z,37.20
2023-03-22T06:51:36.520Z,36.80
2023-03-22T06:54:05.032Z,36.10
2023-03-22T06:56:33.402Z,36.60
2023-03-22T06:59:02.489Z,34.00
2023-03-22T07:01:31.089Z,37.10
2023-03-22T07:03:59.631Z,36.50
2023-03-22T07:06:28.737Z,36.50
2023-03-22T07:08:57.032Z,34.70
2023-03-22T07:11:28.480Z,34.40
2023-03-22T07:14:03.967Z,33.80
2023-03-22T07:16:48.929Z,34.10
2023-03-22T07:19:19.025Z,33.90
2023-03-22T07:21:47.827Z,33.80
2023-03-22T07:24:16.460Z,31.90
2023-03-22T07:26:46.586Z,30.20
2023-03-22T07:29:18.397Z,29.80
2023-03-22T07:31:46.802Z,29.00
2023-03-22T07:34:23.299Z,26.90
2023-03-22T07:37:03.076Z,27.60
2023-03-22T07:39:31.896Z,28.30
2023-03-22T07:42:00.355Z,25.00
2023-03-22T07:44:54.157Z,26.80
2023-03-22T07:47:39.644Z,23.50
2023-03-22T07:50:32.019Z,22.10
2023-03-22T07:53:01.577Z,23.50
2023-03-22T07:55:30.092Z,23.70
2023-03-22T07:57:58.398Z,23.70
2023-03-22T08:00:27.192Z,22.90
2023-03-22T08:03:02.263Z,23.80
2023-03-22T08:05:51.754Z,21.70
2023-03-22T08:08:20.771Z,21.90
2023-03-22T08:10:50.820Z,20.50
2023-03-22T08:13:19.308Z,22.50
2023-03-22T08:15:47.681Z,23.40
2023-03-22T08:18:16.023Z,22.20
2023-03-22T08:20:45.801Z,21.80
2023-03-22T08:23:20.112Z,23.70
2023-03-22T08:25:51.181Z,24.40
2023-03-22T08:28:20.298Z,22.40
2023-03-22T08:30:49.360Z,24.40
2023-03-22T08:33:21.983Z,22.80
2023-03-22T08:35:51.267Z,21.30
2023-03-22T08:38:20.983Z,19.50
2023-03-22T08:40:52.115Z,20.50
2023-03-22T08:43:23.251Z,19.30
2023-03-22T08:45:53.448Z,18.70
2023-03-22T08:48:22.224Z,17.70
2023-03-22T08:51:08.211Z,17.20
2023-03-22T08:53:47.373Z,16.70
2023-03-22T08:56:44.768Z,17.10
2023-03-22T08:59:21.837Z,15.80
2023-03-22T09:02:16.430Z,16.30
2023-03-22T09:04:45.063Z,16.80
2023-03-22T09:07:13.389Z,14.90
2023-03-22T09:09:43.501Z,13.60
2023-03-22T09:12:12.670Z,14.50
2023-03-22T09:14:41.237Z,13.90
2023-03-22T09:17:10.003Z,13.20
2023-03-22T09:19:38.303Z,12.90
2023-03-22T09:22:07.087Z,15.00
2023-03-22T09:24:42.604Z,10.30
2023-03-22T09:27:10.857Z,12.40
2023-03-22T09:29:39.095Z,10.60
2023-03-22T09:32:11.192Z,10.20
2023-03-22T09:34:40.747Z,9.90
2023-03-22T09:37:09.375Z,9.30
2023-03-22T09:39:49.353Z,9.60
2023-03-22T09:42:42.338Z,11.10
2023-03-22T09:45:15.395Z,11.20
2023-03-22T09:47:55.892Z,12.40
2023-03-22T09:50:28.468Z,11.40
2023-03-22T09:52:58.475Z,12.10
2023-03-22T09:56:17.130Z,11.10
2023-03-22T09:59:00.045Z,12.10
2023-03-22T10:01:47.043Z,11.40
2023-03-22T10:04:46.142Z,12.10
2023-03-22T10:07:21.052Z,10.50
2023-03-22T10:09:55.848Z,9.40
2023-03-22T10:12:32.277Z,8.40
2023-03-22T10:15:15.467Z,6.80
2023-03-22T10:17:52.261Z,6.70
2023-03-22T10:20:42.542Z,6.10
2023-03-22T10:23:16.872Z,5.50
2023-03-22T10:25:46.202Z,6.10
2023-03-22T10:28:26.844Z,6.10
2023-03-22T10:30:57.333Z,5.40
2023-03-22T10:33:39.095Z,5.80
2023-03-22T10:36:13.653Z,5.20
2023-03-22T10:38:53.180Z,5.30
2023-03-22T10:41:24.936Z,5.20
2023-03-22T10:44:00.807Z,5.30
2023-03-22T10:46:36.967Z,5.00
2023-03-22T10:49:07.420Z,5.10
2023-03-22T10:51:49.671Z,4.60
2023-03-22T10:54:24.613Z,4.60
2023-03-22T10:56:54.482Z,3.80
2023-03-22T10:59:47.439Z,4.50
2023-03-22T11:02:20.516Z,3.70
2023-03-22T11:04:50.802Z,4.10
2023-03-22T11:07:42.818Z,4.20
2023-03-22T11:10:11.077Z,4.30
2023-03-22T11:12:55.261Z,4.50
2023-03-22T11:15:31.196Z,4.50
2023-03-22T11:18:04.726Z,4.30
2023-03-22T11:20:34.516Z,4.20
2023-03-22T11:23:06.999Z,4.70
2023-03-22T11:25:38.297Z,5.30
2023-03-22T11:28:22.618Z,5.60
2023-03-22T11:31:08.543Z,5.90
2023-03-22T11:33:37.603Z,4.70
2023-03-22T11:36:17.439Z,5.10
2023-03-22T11:38:47.357Z,5.80
2023-03-22T11:41:22.322Z,5.60
2023-03-22T11:43:56.966Z,4.80
2023-03-22T11:46:25.736Z,5.00
2023-03-22T11:49:01.442Z,5.00
2023-03-22T11:51:35.129Z,5.10
2023-03-22T11:54:30.509Z,4.80
2023-03-22T11:57:02.849Z,4.60
2023-03-22T11:59:39.002Z,5.00
2023-03-22T12:02:16.311Z,5.00
2023-03-22T12:04:49.116Z,5.60
2023-03-22T12:07:21.571Z,4.50
2023-03-22T12:09:58.964Z,4.20
2023-03-22T12:12:34.580Z,4.90
2023-03-22T12:15:08.476Z,4.60
2023-03-22T12:17:44.006Z,5.00
2023-03-22T12:20:27.390Z,4.50
2023-03-22T12:22:56.724Z,4.60
2023-03-22T12:25:36.695Z,4.20
2023-03-22T12:28:18.469Z,4.60
2023-03-22T12:30:49.559Z,4.80
2023-03-22T12:33:33.713Z,5.50
2023-03-22T12:36:05.420Z,4.30
2023-03-22T12:38:42.821Z,4.90
2023-03-22T12:41:25.359Z,5.00
2023-03-22T12:44:01.234Z,4.70
2023-03-22T12:46:40.167Z,4.50
2023-03-22T12:49:28.082Z,4.40
2023-03-22T12:52:06.155Z,4.00
2023-03-22T12:54:35.606Z,4.40
2023-03-22T12:57:04.776Z,3.90
2023-03-22T12:59:33.141Z,4.10
2023-03-22T13:02:15.712Z,4.30
2023-03-22T13:04:43.866Z,4.20
2023-03-22T13:07:15.361Z,4.30
2023-03-22T13:09:48.890Z,4.50
2023-03-22T13:12:17.307Z,4.10
2023-03-22T13:15:31.557Z,4.10
2023-03-22T13:18:31.785Z,4.30
2023-03-22T13:21:22.799Z,3.90
2023-03-22T13:23:54.070Z,3.80
2023-03-22T13:26:47.422Z,3.80
2023-03-22T13:29:38.133Z,4.10
2023-03-22T13:32:33.447Z,3.80
2023-03-22T13:35:01.866Z,4.80
2023-03-22T13:37:37.581Z,4.10
2023-03-22T13:40:38.012Z,4.30
2023-03-22T13:43:15.579Z,3.90
2023-03-22T13:46:05.074Z,4.00
2023-03-22T13:48:47.287Z,3.70
2023-03-22T13:51:22.037Z,4.90
2023-03-22T13:54:24.015Z,4.00
2023-03-22T13:56:53.329Z,4.50
2023-03-22T13:59:27.841Z,3.80
2023-03-22T14:01:59.204Z,4.10
2023-03-22T14:04:40.639Z,4.00
2023-03-22T14:07:40.290Z,4.50
2023-03-22T14:10:47.015Z,3.80
2023-03-22T14:13:29.472Z,3.60
2023-03-22T14:16:06.411Z,3.90
2023-03-22T14:18:39.360Z,4.90
2023-03-22T14:21:13.874Z,6.40
